Grootegast, Netherlands
Current Conditions -  °F | °C
As of 11:25 AM on Thursday 27 Nov 2014 (Local Time) from EHGG Reporting Station
Overcast Overcast  
Wind Chill: 33°   Ceiling: 900
Heat Index: 39°   Visibility: 4mi
Dew Point: 36°   Wind: 9mph
Humidity: 87%   Direction: 110°ESE
Pressure: 29.8"   Gusts: NA
Location:  53.21°N, 6.27°E
Report Text: EHGG 271025Z AUTO 11008KT 070V140 7000 OVC009 04/02 Q1009 BECMG8000 BKN013
Loading
Personal Weather Stations






























Interactive Weather Map New forecast layout! Learn more

10-Day Weather Forecast

Advertisements
Track Severe Weather on mobile